Time;durP1;ratioP1;P1;durP2;ratioP2;P2;SDS_P1;SDS_P2;PMS_P1;PMS_P2;Temp;Humidity;BMP_temperature;BMP_pressure;BME280_temperature;BME280_humidity;BME280_pressure;Samples;Min_cycle;Max_cycle;Signal;HPM_P1;HPM_P2
2023/05/15 00:00:21;;;;;;;3.75;1.33;;;11.60;99.90;;;10.75;100.00;97418.38;5020678;28;20537;-74
2023/05/15 00:02:49;;;;;;;3.45;1.30;;;11.60;99.90;;;10.73;100.00;97416.75;5039596;28;20053;-77
2023/05/15 00:05:16;;;;;;;3.28;1.17;;;11.70;99.90;;;10.69;100.00;97413.44;5005213;28;20053;-77
2023/05/15 00:07:43;;;;;;;3.95;1.30;;;11.70;99.90;;;10.59;100.00;97413.03;5022664;28;20119;-75
2023/05/15 00:10:11;;;;;;;1.40;1.00;;;11.60;99.90;;;10.60;100.00;97406.09;5021641;28;20046;-77
2023/05/15 00:12:38;;;;;;;2.20;1.20;;;11.60;99.90;;;10.57;100.00;97411.44;5019564;28;20054;-76
2023/05/15 00:15:06;;;;;;;1.85;1.10;;;11.70;99.90;;;10.51;100.00;97409.94;5020571;28;20071;-77
2023/05/15 00:17:33;;;;;;;3.53;1.23;;;11.60;99.90;;;10.51;100.00;97412.53;5020059;28;20049;-77
2023/05/15 00:20:01;;;;;;;3.28;1.40;;;11.60;99.90;;;10.51;100.00;97415.13;5024589;28;20049;-74
2023/05/15 00:22:27;;;;;;;1.67;1.20;;;11.60;99.90;;;10.45;100.00;97418.00;5022849;28;20156;-76
2023/05/15 00:24:55;;;;;;;5.43;1.42;;;11.50;99.90;;;10.53;100.00;97410.72;5021343;28;20130;-75
2023/05/15 00:27:21;;;;;;;4.13;1.40;;;11.50;99.90;;;10.53;100.00;97407.28;5022840;28;20421;-75
2023/05/15 00:29:48;;;;;;;2.40;1.17;;;11.50;99.90;;;10.34;100.00;97413.28;5005018;28;20057;-76
2023/05/15 00:32:15;;;;;;;4.65;1.38;;;11.50;99.90;;;10.31;100.00;97410.84;5020100;28;20428;-75
2023/05/15 00:34:42;;;;;;;2.55;1.60;;;11.40;99.90;;;10.44;100.00;97411.97;5020210;28;20057;-76
2023/05/15 00:37:10;;;;;;;2.22;1.35;;;11.40;99.90;;;10.46;100.00;97407.53;5022308;28;20049;-76
2023/05/15 00:39:38;;;;;;;2.33;1.30;;;11.40;99.90;;;10.51;100.00;97416.88;5022285;28;20107;-76
2023/05/15 00:42:06;;;;;;;2.67;1.20;;;11.50;99.90;;;10.50;100.00;97410.84;5025704;28;20104;-76
2023/05/15 00:44:34;;;;;;;2.80;1.35;;;11.50;99.90;;;10.40;100.00;97406.97;5006356;28;20045;-75
2023/05/15 00:47:02;;;;;;;1.65;1.05;;;11.50;99.90;;;10.44;100.00;97404.16;5023329;28;20049;-76
2023/05/15 00:49:31;;;;;;;1.98;1.30;;;11.50;99.90;;;10.32;100.00;97412.50;5007396;28;20585;-75
2023/05/15 00:52:02;;;;;;;2.90;1.23;;;11.40;99.90;;;10.49;100.00;97405.72;5022130;28;20433;-76
2023/05/15 00:54:29;;;;;;;3.70;1.50;;;11.40;99.90;;;10.56;100.00;97408.00;5022761;28;20512;-76
2023/05/15 00:56:59;;;;;;;1.95;1.40;;;11.50;99.90;;;10.56;100.00;97405.41;5024700;28;20136;-75
2023/05/15 00:59:30;;;;;;;2.05;1.23;;;11.50;99.90;;;10.55;100.00;97403.69;5027541;28;20576;-76
2023/05/15 01:01:58;;;;;;;3.20;1.27;;;11.50;99.90;;;10.42;100.00;97397.38;5021397;28;20049;-76
2023/05/15 01:04:25;;;;;;;3.50;1.30;;;11.50;99.90;;;10.31;100.00;97400.47;5007961;28;20052;-76
2023/05/15 01:06:52;;;;;;;2.90;1.33;;;11.50;99.90;;;10.24;100.00;97402.47;4992355;28;20049;-76
2023/05/15 01:09:24;;;;;;;4.07;1.30;;;11.40;99.90;;;10.17;100.00;97413.16;5020242;28;20080;-76
2023/05/15 01:11:56;;;;;;;5.13;1.63;;;11.30;99.90;;;10.21;100.00;97420.72;5025863;28;20148;-75
2023/05/15 01:14:25;;;;;;;1.90;1.40;;;11.30;99.90;;;10.17;100.00;97421.78;5035387;28;20054;-76
2023/05/15 01:16:52;;;;;;;2.22;1.20;;;11.30;99.90;;;10.10;100.00;97422.09;5021635;28;20057;-76
2023/05/15 01:19:20;;;;;;;2.40;1.30;;;11.20;99.90;;;10.12;100.00;97422.88;5037510;28;20041;-75
2023/05/15 01:22:36;;;;;;;2.15;1.30;;;11.20;99.90;;;10.04;100.00;97420.63;5024501;28;20063;-75
2023/05/15 01:25:15;;;;;;;5.43;1.58;;;11.20;99.90;;;10.09;100.00;97425.63;5022914;28;20057;-76
2023/05/15 01:27:50;;;;;;;2.35;1.50;;;11.10;99.90;;;10.02;100.00;97428.47;5024094;28;20419;-76
2023/05/15 01:30:34;;;;;;;1.70;1.30;;;11.10;99.90;;;10.31;100.00;97412.56;5024256;28;20046;-75
2023/05/15 01:33:15;;;;;;;3.97;2.15;;;11.20;99.90;;;10.10;100.00;97406.53;5008648;28;20835;-75
2023/05/15 01:36:11;;;;;;;3.25;1.63;;;11.20;99.90;;;9.92;100.00;97398.66;5006527;28;20061;-76
2023/05/15 01:38:56;;;;;;;2.38;1.52;;;11.10;99.90;;;9.69;100.00;97394.44;5041167;28;20282;-75
2023/05/15 01:41:30;;;;;;;3.45;1.80;;;10.90;99.90;;;9.58;100.00;97400.09;5025380;28;22097;-76
2023/05/15 01:44:16;;;;;;;3.75;1.58;;;10.80;99.90;;;9.53;100.00;97411.53;5022963;28;20060;-76
2023/05/15 01:46:46;;;;;;;5.82;1.88;;;10.70;99.90;;;9.46;100.00;97413.53;5024890;28;20041;-76
2023/05/15 01:49:18;;;;;;;2.88;1.73;;;10.60;99.90;;;9.40;100.00;97411.19;5009026;28;20137;-75
2023/05/15 01:51:50;;;;;;;4.07;1.70;;;10.60;99.90;;;9.43;100.00;97416.25;5024404;28;20141;-76
2023/05/15 01:54:18;;;;;;;2.53;1.60;;;10.50;99.90;;;9.40;100.00;97416.38;5023092;28;20558;-76
2023/05/15 01:56:45;;;;;;;2.80;1.67;;;10.50;99.90;;;9.33;100.00;97428.75;5022571;28;20691;-76
2023/05/15 01:59:14;;;;;;;2.90;1.65;;;10.50;99.90;;;9.42;100.00;97424.94;5009087;28;20041;-76
2023/05/15 02:01:44;;;;;;;3.92;1.60;;;10.50;99.90;;;9.45;100.00;97416.19;5024685;28;20048;-76
2023/05/15 02:04:13;;;;;;;3.17;1.70;;;10.50;99.90;;;9.37;100.00;97419.94;5006008;28;20480;-76
2023/05/15 02:06:40;;;;;;;3.97;2.20;;;10.50;99.90;;;9.27;100.00;97422.97;5021830;28;20242;-76
2023/05/15 02:09:09;;;;;;;3.08;1.80;;;10.40;99.90;;;9.35;100.00;97420.88;5006327;28;20049;-76
2023/05/15 02:11:36;;;;;;;3.22;1.80;;;10.40;99.90;;;9.27;100.00;97422.97;5007459;28;20132;-75
2023/05/15 02:14:04;;;;;;;1.90;1.40;;;10.40;99.90;;;9.33;100.00;97420.13;5006761;28;20082;-76
2023/05/15 02:16:32;;;;;;;2.28;1.60;;;10.40;99.90;;;9.13;100.00;97415.72;5022594;28;20144;-76
2023/05/15 02:18:59;;;;;;;3.17;2.03;;;10.30;99.90;;;9.28;100.00;97409.09;5024610;28;20524;-76
2023/05/15 02:21:26;;;;;;;2.80;1.83;;;10.30;99.90;;;9.17;100.00;97419.91;5007989;28;20045;-76
2023/05/15 02:23:54;;;;;;;4.07;2.05;;;10.30;99.90;;;9.21;100.00;97414.53;5025117;28;20060;-76
2023/05/15 02:26:59;;;;;;;4.03;2.38;;;10.30;99.90;;;9.40;100.00;97411.19;5020965;28;20597;-76
2023/05/15 02:29:38;;;;;;;2.20;1.35;;;10.30;99.90;;;9.53;100.00;97407.19;5024429;28;20074;-76
2023/05/15 02:32:15;;;;;;;4.97;2.13;;;10.40;99.90;;;9.52;100.00;97402.09;5021872;28;20052;-75
2023/05/15 02:35:28;;;;;;;3.53;1.95;;;10.50;99.90;;;9.43;100.00;97400.72;5004495;28;20046;-76
2023/05/15 02:37:59;;;;;;;3.15;1.92;;;10.50;99.90;;;9.47;100.00;97404.03;5020714;28;20049;-76
2023/05/15 02:40:27;;;;;;;2.42;1.95;;;10.50;99.90;;;9.43;100.00;97403.28;5015553;28;20451;-76
2023/05/15 02:42:55;;;;;;;2.00;1.40;;;10.50;99.90;;;9.51;100.00;97403.84;5021517;28;20050;-76
2023/05/15 02:45:23;;;;;;;2.92;1.70;;;10.50;99.90;;;9.47;100.00;97410.03;5024069;28;20046;-75
2023/05/15 02:47:51;;;;;;;2.42;1.80;;;10.50;99.90;;;9.54;100.00;97406.28;5022316;28;20057;-75
2023/05/15 02:50:19;;;;;;;2.25;1.70;;;10.50;99.90;;;9.61;100.00;97405.13;5024235;28;20064;-75
2023/05/15 02:52:46;;;;;;;4.57;2.25;;;10.50;99.90;;;9.57;100.00;97397.53;5006648;28;20088;-76
2023/05/15 02:55:13;;;;;;;2.50;1.67;;;10.60;99.90;;;9.70;100.00;97406.50;5023751;28;20049;-76
2023/05/15 02:57:41;;;;;;;3.13;1.67;;;10.60;99.90;;;9.64;100.00;97401.56;5038853;28;20064;-76
2023/05/15 03:00:25;;;;;;;3.53;1.63;;;10.60;99.90;;;9.75;100.00;97403.72;5024523;28;20053;-75
2023/05/15 03:02:52;;;;;;;2.90;1.90;;;10.50;99.90;;;9.67;100.00;97398.00;5027051;28;20060;-76
2023/05/15 03:05:20;;;;;;;2.92;2.40;;;10.60;99.90;;;9.62;100.00;97388.69;5023964;28;20060;-76
2023/05/15 03:07:47;;;;;;;3.65;3.08;;;10.60;99.90;;;9.68;100.00;97391.94;5018833;28;20425;-76
2023/05/15 03:10:14;;;;;;;5.07;3.28;;;10.60;99.90;;;9.72;100.00;97394.31;5021463;28;20045;-76
2023/05/15 03:12:41;;;;;;;4.32;3.38;;;10.60;99.90;;;9.75;100.00;97390.75;5006331;28;20042;-76
2023/05/15 03:15:08;;;;;;;5.32;3.40;;;10.50;99.90;;;9.77;100.00;97396.72;5019739;28;20061;-76
2023/05/15 03:17:36;;;;;;;4.28;3.22;;;10.50;99.90;;;9.60;100.00;97392.22;5019072;28;20049;-76
2023/05/15 03:20:04;;;;;;;2.83;2.35;;;10.50;99.90;;;9.79;100.00;97398.34;5038131;28;20490;-75
2023/05/15 03:22:31;;;;;;;3.60;2.25;;;10.50;99.90;;;9.76;100.00;97392.44;5007425;28;20047;-76
2023/05/15 03:25:00;;;;;;;3.08;2.47;;;10.60;99.90;;;9.75;100.00;97396.78;5024085;28;20054;-76
2023/05/15 03:27:27;;;;;;;5.15;2.95;;;10.60;99.90;;;9.89;100.00;97400.53;5019030;28;20137;-76
2023/05/15 03:29:54;;;;;;;4.43;2.53;;;10.60;99.90;;;9.94;100.00;97403.78;5022256;28;20057;-76
2023/05/15 03:32:22;;;;;;;4.72;2.88;;;10.60;99.90;;;9.87;100.00;97399.75;5026028;28;20056;-76
2023/05/15 03:34:49;;;;;;;4.45;2.63;;;10.60;99.90;;;9.75;100.00;97403.72;5023243;28;20060;-74
2023/05/15 03:37:17;;;;;;;5.20;3.00;;;10.60;99.90;;;9.73;100.00;97403.78;5025101;28;20045;-76
2023/05/15 03:39:44;;;;;;;4.82;3.10;;;10.50;99.90;;;9.68;100.00;97415.25;5008094;28;20132;-75
2023/05/15 03:42:11;;;;;;;4.88;3.85;;;10.40;99.90;;;9.39;100.00;97419.88;5007498;28;20045;-75
2023/05/15 03:44:38;;;;;;;3.67;2.78;;;10.30;99.90;;;9.52;100.00;97426.25;5025998;28;20141;-75
2023/05/15 03:47:06;;;;;;;4.00;2.75;;;10.40;99.90;;;9.75;100.00;97427.88;5044012;28;20060;-76
2023/05/15 03:49:33;;;;;;;4.03;2.67;;;10.50;99.90;;;9.64;100.00;97425.72;5010931;28;20060;-76
2023/05/15 03:52:01;;;;;;;4.25;3.08;;;10.50;99.90;;;9.77;100.00;97422.63;5025080;28;20084;-76
2023/05/15 03:54:28;;;;;;;5.00;2.60;;;10.60;99.90;;;9.80;100.00;97423.34;5009450;28;20115;-76
2023/05/15 03:56:56;;;;;;;4.22;2.50;;;10.60;99.90;;;9.71;100.00;97417.69;5028222;28;20060;-76
2023/05/15 03:59:23;;;;;;;4.28;2.63;;;10.50;99.90;;;9.73;100.00;97419.31;5028055;28;20125;-76
2023/05/15 04:01:50;;;;;;;3.80;2.40;;;10.60;99.90;;;9.80;100.00;97419.91;5028145;28;20061;-76
2023/05/15 04:04:31;;;;;;;4.57;2.60;;;10.60;99.90;;;9.75;100.00;97414.09;5029239;28;20080;-76
2023/05/15 04:06:59;;;;;;;4.18;3.05;;;10.60;99.90;;;9.78;100.00;97412.22;5028271;28;20053;-76
2023/05/15 04:09:26;;;;;;;6.43;2.78;;;10.70;99.90;;;9.89;100.00;97418.69;5024125;28;20049;-76
2023/05/15 04:11:53;;;;;;;9.32;3.10;;;10.70;99.90;;;9.86;100.00;97416.22;5009256;28;20072;-76
2023/05/15 04:14:20;;;;;;;6.28;3.17;;;10.80;99.90;;;9.91;100.00;97409.94;5027659;28;20073;-75
2023/05/15 04:16:47;;;;;;;3.55;2.72;;;10.80;99.90;;;9.88;100.00;97415.25;5023757;28;20049;-75
2023/05/15 04:19:14;;;;;;;5.85;2.95;;;10.80;99.90;;;9.65;100.00;97411.03;5008669;28;20052;-76
2023/05/15 04:21:41;;;;;;;3.95;2.50;;;10.80;99.90;;;9.93;100.00;97417.66;5009343;28;20045;-76
2023/05/15 04:24:09;;;;;;;4.40;2.20;;;10.80;99.90;;;10.12;100.00;97415.94;5010150;28;20050;-76
2023/05/15 04:26:37;;;;;;;4.20;3.13;;;10.80;99.90;;;9.86;100.00;97411.88;5043546;28;20041;-76
2023/05/15 04:29:04;;;;;;;3.78;2.67;;;10.80;99.90;;;9.97;100.00;97408.84;5023201;28;20053;-76
2023/05/15 04:31:33;;;;;;;5.85;2.90;;;10.90;99.90;;;9.96;100.00;97414.91;5027339;28;20042;-75
2023/05/15 04:34:02;;;;;;;6.30;3.40;;;10.90;99.90;;;10.09;100.00;97415.25;5026301;28;20084;-76
2023/05/15 04:36:30;;;;;;;6.13;3.13;;;10.90;99.90;;;9.89;100.00;97419.53;5026681;28;20053;-76
2023/05/15 04:38:57;;;;;;;4.50;2.90;;;10.90;99.90;;;10.00;100.00;97421.66;5005316;28;20067;-77
2023/05/15 04:41:25;;;;;;;6.43;2.83;;;10.90;99.90;;;10.20;100.00;97426.84;5008246;28;20117;-76
2023/05/15 04:43:53;;;;;;;7.53;2.53;;;10.90;99.90;;;10.33;100.00;97418.53;5023731;28;20821;-76
2023/05/15 04:46:20;;;;;;;3.63;3.13;;;11.00;99.90;;;10.31;100.00;97413.44;5024050;28;20054;-76
2023/05/15 04:48:47;;;;;;;3.63;2.63;;;11.10;99.90;;;10.23;100.00;97405.94;5026984;28;20058;-76
2023/05/15 04:51:15;;;;;;;4.90;2.78;;;11.10;99.90;;;10.51;100.00;97412.53;5018616;28;20509;-76
2023/05/15 04:53:42;;;;;;;4.07;2.65;;;11.10;99.90;;;10.53;100.00;97407.28;5025673;28;20136;-76
2023/05/15 04:56:08;;;;;;;3.92;2.55;;;11.10;99.90;;;10.57;100.00;97401.88;5022696;28;20049;-75
2023/05/15 04:58:36;;;;;;;5.65;2.72;;;11.10;99.90;;;10.71;100.00;97397.81;5026075;28;20098;-75
2023/05/15 05:01:03;;;;;;;5.95;3.20;;;11.20;99.90;;;10.66;100.00;97392.84;5025081;28;20158;-76
2023/05/15 05:03:30;;;;;;;7.00;2.67;;;11.40;99.90;;;10.89;100.00;97386.56;5025392;28;20488;-76
2023/05/15 05:05:58;;;;;;;4.13;2.85;;;11.50;99.90;;;10.88;100.00;97390.09;5024031;28;20049;-76
2023/05/15 05:08:24;;;;;;;5.28;3.40;;;11.60;99.90;;;10.96;100.00;97381.94;5010095;28;20046;-76
2023/05/15 05:11:02;;;;;;;4.47;2.40;;;11.60;99.90;;;10.92;100.00;97383.00;5026033;28;20136;-76
2023/05/15 05:13:29;;;;;;;2.78;2.05;;;11.70;99.90;;;10.91;100.00;97384.75;5022919;28;20053;-76
2023/05/15 05:15:56;;;;;;;4.45;3.05;;;11.80;99.90;;;11.16;100.00;97386.19;5022715;28;20611;-77
2023/05/15 05:18:23;;;;;;;3.80;2.72;;;11.70;99.90;;;11.11;100.00;97378.63;5023703;28;20136;-76
2023/05/15 05:20:59;;;;;;;6.55;3.35;;;11.70;99.90;;;10.92;100.00;97373.44;5028092;28;20068;-76
2023/05/15 05:23:27;;;;;;;4.85;3.15;;;11.70;99.90;;;11.01;100.00;97383.38;5041794;28;20075;-76
2023/05/15 05:25:54;;;;;;;5.05;3.15;;;11.70;99.90;;;11.25;100.00;97383.16;5023869;28;20049;-76
2023/05/15 05:28:22;;;;;;;5.75;3.78;;;11.80;99.90;;;11.22;100.00;97372.88;5026989;28;20192;-76
2023/05/15 05:30:49;;;;;;;6.75;4.15;;;11.90;99.90;;;11.43;100.00;97378.81;5027666;28;20144;-76
2023/05/15 05:33:17;;;;;;;5.85;3.28;;;12.00;99.90;;;11.43;100.00;97371.03;5008790;28;20441;-76
2023/05/15 05:35:44;;;;;;;5.78;3.88;;;12.00;99.90;;;11.56;100.00;97361.66;5025770;28;20125;-75
2023/05/15 05:38:12;;;;;;;4.88;3.15;;;12.10;99.90;;;11.71;100.00;97360.91;5028518;28;20056;-76
2023/05/15 05:40:41;;;;;;;3.95;2.78;;;12.20;99.90;;;11.87;100.00;97361.00;5027193;28;20136;-76
2023/05/15 05:43:08;;;;;;;4.20;3.15;;;12.30;99.90;;;12.00;100.00;97355.19;5025208;28;20049;-76
2023/05/15 05:45:36;;;;;;;4.68;3.33;;;12.40;99.90;;;12.00;100.00;97345.63;5027259;28;20077;-76
2023/05/15 05:48:03;;;;;;;6.18;3.72;;;12.60;99.90;;;12.24;100.00;97345.25;5025515;28;20084;-76
2023/05/15 05:50:32;;;;;;;5.40;2.95;;;12.70;99.90;;;12.41;100.00;97342.59;5005935;28;20053;-76
2023/05/15 05:52:59;;;;;;;6.97;3.45;;;12.80;99.90;;;12.64;100.00;97333.53;5017518;28;20061;-76
2023/05/15 05:55:26;;;;;;;8.05;3.28;;;12.90;99.90;;;13.17;100.00;97321.03;5027293;28;20085;-76
2023/05/15 05:57:54;;;;;;;4.50;3.00;;;13.10;99.90;;;13.13;100.00;97317.75;5023233;28;20398;-76
2023/05/15 06:00:21;;;;;;;4.40;2.65;;;13.30;99.90;;;13.08;100.00;97319.78;5027111;28;20045;-76
2023/05/15 06:02:59;;;;;;;6.25;2.70;;;13.50;99.90;;;13.24;100.00;97316.31;5023280;28;20064;-76
2023/05/15 06:05:26;;;;;;;4.10;2.38;;;13.70;99.90;;;13.19;100.00;97309.59;5023971;28;20041;-75
2023/05/15 06:07:54;;;;;;;4.10;2.35;;;13.70;99.90;;;13.26;100.00;97310.06;5015422;28;20535;-76
2023/05/15 06:10:22;;;;;;;5.40;2.20;;;13.90;99.90;;;13.21;100.00;97304.28;5022131;28;20093;-76
2023/05/15 06:12:49;;;;;;;3.30;2.20;;;14.00;99.90;;;13.56;100.00;97304.03;5027170;28;20054;-76
2023/05/15 06:15:17;;;;;;;2.38;2.00;;;14.00;99.90;;;13.98;100.00;97298.03;5024245;28;20412;-76
2023/05/15 06:17:44;;;;;;;3.47;1.90;;;14.20;99.90;;;14.21;100.00;97287.94;5020246;28;20612;-76
2023/05/15 06:20:11;;;;;;;2.75;1.70;;;14.50;99.90;;;14.35;100.00;97292.31;5023409;28;20069;-76
2023/05/15 06:22:38;;;;;;;3.28;1.92;;;14.70;99.90;;;14.44;100.00;97289.13;5024765;28;20095;-76
2023/05/15 06:25:06;;;;;;;3.78;2.20;;;14.90;99.90;;;14.54;100.00;97285.00;5024859;28;20041;-76
2023/05/15 06:27:34;;;;;;;4.63;1.55;;;15.00;99.90;;;14.40;100.00;97280.63;5023435;28;20041;-76
2023/05/15 06:30:01;;;;;;;3.72;2.05;;;15.10;99.90;;;14.52;100.00;97286.00;5027009;28;20045;-76
2023/05/15 06:32:29;;;;;;;3.13;2.00;;;15.10;99.90;;;14.36;100.00;97281.75;5024725;28;20988;-74
2023/05/15 06:35:00;;;;;;;3.67;2.13;;;15.10;99.90;;;14.37;100.00;97287.84;5009087;28;20060;-76
2023/05/15 06:37:27;;;;;;;4.75;1.98;;;15.00;99.90;;;14.17;100.00;97282.06;5026110;28;20124;-76
2023/05/15 06:39:55;;;;;;;3.38;2.20;;;15.00;99.90;;;14.39;100.00;97286.81;5023719;28;20088;-75
2023/05/15 06:42:22;;;;;;;3.50;1.90;;;15.00;99.90;;;14.40;100.00;97285.84;5023783;28;20056;-76
2023/05/15 06:44:49;;;;;;;3.17;2.45;;;15.00;99.90;;;14.31;100.00;97286.44;5026126;28;20061;-76
2023/05/15 06:47:16;;;;;;;3.35;2.55;;;15.10;99.90;;;14.50;100.00;97283.50;5027738;28;20049;-76
2023/05/15 06:49:44;;;;;;;5.15;2.80;;;15.10;99.90;;;14.48;100.00;97285.34;5028075;28;20047;-75
2023/05/15 06:52:11;;;;;;;3.97;2.50;;;15.20;99.90;;;14.76;100.00;97289.72;5024956;28;20132;-76
2023/05/15 06:54:40;;;;;;;5.68;2.70;;;15.30;99.90;;;14.79;100.00;97289.50;5008950;28;20048;-75
2023/05/15 06:57:07;;;;;;;9.80;3.20;;;15.40;99.90;;;14.84;100.00;97286.59;5024379;28;20049;-76
2023/05/15 06:59:34;;;;;;;7.10;2.90;;;15.50;99.90;;;14.96;100.00;97285.81;5024105;28;20506;-76
2023/05/15 07:02:02;;;;;;;4.57;2.97;;;15.60;99.90;;;15.32;100.00;97292.16;5022805;28;20056;-76
2023/05/15 07:04:30;;;;;;;6.35;2.70;;;15.70;99.90;;;15.18;100.00;97295.69;5022809;28;20038;-77
2023/05/15 07:06:58;;;;;;;4.85;3.03;;;15.90;99.90;;;14.94;100.00;97282.47;5024952;28;20050;-76
2023/05/15 07:09:25;;;;;;;6.03;2.55;;;15.80;99.90;;;15.16;100.00;97288.91;5027211;28;20137;-76
2023/05/15 07:11:52;;;;;;;4.68;3.17;;;15.90;99.90;;;15.09;100.00;97291.06;5010215;28;20053;-76
2023/05/15 07:14:19;;;;;;;5.75;2.67;;;15.90;99.90;;;15.54;100.00;97285.53;5041830;28;20050;-76
2023/05/15 07:16:47;;;;;;;4.47;2.50;;;16.00;99.90;;;15.54;100.00;97288.13;5026475;28;20506;-76
2023/05/15 07:19:19;;;;;;;6.55;2.97;;;16.00;99.90;;;15.53;100.00;97282.06;5025841;28;20050;-76
2023/05/15 07:21:47;;;;;;;6.28;3.05;;;16.10;99.90;;;15.67;100.00;97281.16;5031161;28;20788;-76
2023/05/15 07:24:14;;;;;;;3.90;3.15;;;16.20;99.90;;;15.44;100.00;97282.66;5026379;28;20124;-76
2023/05/15 07:26:41;;;;;;;5.20;3.45;;;16.30;99.90;;;15.20;100.00;97275.53;5030560;28;20131;-76
2023/05/15 07:33:00;;;;;;;5.05;3.13;;;16.20;99.90;;;15.71;100.00;97276.56;5005906;28;20116;-76
2023/05/15 07:35:27;;;;;;;4.10;3.17;;;16.30;99.90;;;15.91;100.00;97280.44;4991491;28;20536;-77
2023/05/15 07:37:54;;;;;;;6.75;3.35;;;16.40;99.90;;;15.69;100.00;97272.25;4996091;28;20555;-77
2023/05/15 07:40:21;;;;;;;4.63;3.58;;;16.50;99.90;;;15.59;100.00;97278.19;4997548;28;20061;-77
2023/05/15 07:42:48;;;;;;;6.82;3.65;;;16.40;99.90;;;15.89;100.00;97277.91;4985711;28;20056;-77
2023/05/15 07:45:16;;;;;;;3.75;3.00;;;16.40;99.90;;;16.04;100.00;97273.41;4988433;28;20053;-77
2023/05/15 07:47:48;;;;;;;9.05;3.50;;;16.50;99.90;;;16.03;100.00;97272.56;4995616;28;20038;-76
2023/05/15 07:50:16;;;;;;;6.03;3.30;;;16.60;99.90;;;16.12;100.00;97268.47;4976978;28;20046;-77
2023/05/15 07:52:43;;;;;;;3.60;2.70;;;16.60;99.90;;;16.31;100.00;97266.22;4988963;28;20151;-77
2023/05/15 07:55:11;;;;;;;4.20;2.95;;;16.80;99.90;;;16.40;100.00;97269.13;4999433;28;20061;-77
2023/05/15 07:57:39;;;;;;;3.65;2.42;;;17.00;99.90;;;16.47;100.00;97273.84;4993323;28;20046;-77
2023/05/15 08:00:12;;;;;;;4.93;2.97;;;17.10;99.90;;;16.72;100.00;97278.16;4985435;28;20077;-78
2023/05/15 08:02:40;;;;;;;3.90;2.60;;;17.10;99.90;;;16.87;100.00;97273.59;4998467;28;20056;-78
2023/05/15 08:05:07;;;;;;;4.85;2.58;;;17.40;99.90;;;16.84;100.00;97275.63;4980263;28;20045;-77
2023/05/15 08:11:40;;;;;;;5.05;2.78;;;17.50;99.90;;;17.29;100.00;97265.31;5004345;28;20143;-77
2023/05/15 08:14:07;;;;;;;3.88;2.28;;;17.60;99.90;;;17.33;100.00;97274.59;4992785;28;20058;-77
2023/05/15 08:16:36;;;;;;;5.68;2.58;;;17.90;99.90;;;17.25;100.00;97269.94;4988660;28;20050;-77
2023/05/15 08:19:05;;;;;;;3.88;2.40;;;18.10;99.90;;;17.30;100.00;97266.97;4995955;28;20045;-77
2023/05/15 08:21:33;;;;;;;4.15;2.60;;;17.80;99.90;;;16.87;100.00;97262.28;5011262;28;20140;-77
2023/05/15 08:24:00;;;;;;;5.03;2.30;;;17.90;99.90;;;17.32;100.00;97265.91;4991210;28;20046;-77
2023/05/15 08:26:27;;;;;;;4.18;2.55;;;17.80;99.90;;;17.04;100.00;97267.13;4990591;28;20042;-77
2023/05/15 08:28:58;;;;;;;4.28;3.33;;;17.80;99.90;;;16.64;100.00;97274.41;4992083;28;20865;-77
2023/05/15 08:31:25;;;;;;;4.20;3.05;;;17.70;99.90;;;16.85;100.00;97272.88;5008748;28;20058;-77
2023/05/15 08:33:53;;;;;;;6.07;2.53;;;17.60;99.90;;;16.95;100.00;97267.81;4998730;28;20060;-77
2023/05/15 08:36:20;;;;;;;5.20;3.85;;;17.70;99.90;;;16.57;100.00;97273.19;5002276;28;20053;-78
2023/05/15 08:38:48;;;;;;;5.60;3.15;;;17.60;99.90;;;16.79;100.00;97278.56;4998285;28;20128;-77
2023/05/15 08:41:32;;;;;;;5.00;3.80;;;17.70;99.90;;;17.01;100.00;97277.81;4985742;28;20064;-76
2023/05/15 08:44:09;;;;;;;3.33;2.77;;;17.70;99.90;;;18.07;100.00;97282.19;4992686;28;20046;-77
2023/05/15 08:46:38;;;;;;;4.40;2.95;;;18.20;99.90;;;18.57;100.00;97269.47;5004992;28;20064;-77
2023/05/15 08:49:56;;;;;;;5.00;3.50;;;19.10;99.90;;;19.43;100.00;97267.72;4984140;28;20045;-76
2023/05/15 08:52:25;;;;;;;5.40;3.20;;;;;;;20.02;100.00;97264.47;4977003;28;20073;-77
2023/05/15 08:54:53;;;;;;;4.13;3.08;;;20.90;99.90;;;20.56;100.00;97261.63;5009853;28;20125;-77
2023/05/15 08:57:20;;;;;;;5.53;2.88;;;21.30;99.90;;;20.97;100.00;97254.50;4992190;28;20156;-77
2023/05/15 08:59:48;;;;;;;3.83;2.50;;;22.40;99.90;;;21.80;100.00;97254.81;4981233;28;20129;-77
2023/05/15 09:02:16;;;;;;;4.63;2.15;;;22.70;99.90;;;21.09;100.00;97254.19;4997381;28;20068;-78
2023/05/15 09:04:44;;;;;;;2.97;2.30;;;22.70;99.90;;;21.98;100.00;97247.81;5007177;28;20077;-78
2023/05/15 09:07:14;;;;;;;4.90;2.60;;;22.70;99.90;;;20.90;100.00;97246.28;5000542;28;20121;-77
2023/05/15 09:09:43;;;;;;;4.55;2.30;;;22.40;99.90;;;20.57;100.00;97252.75;4979689;28;20072;-77
2023/05/15 09:12:14;;;;;;;5.63;3.10;;;22.30;99.90;;;19.69;100.00;97243.69;4972492;28;20258;-76
2023/05/15 09:14:44;;;;;;;8.05;2.95;;;21.40;99.90;;;19.74;100.00;97244.94;4991865;28;20451;-76
2023/05/15 09:17:11;;;;;;;5.65;3.20;;;21.30;99.90;;;18.98;100.00;97244.28;5001873;28;20058;-76
2023/05/15 09:19:41;;;;;;;4.25;3.20;;;20.70;99.90;;;18.71;100.00;97242.06;4981070;28;20141;-76
2023/05/15 09:22:23;;;;;;;5.38;3.10;;;20.10;99.90;;;18.42;100.00;97245.22;4990104;28;20053;-76
2023/05/15 09:24:52;;;;;;;6.78;3.45;;;19.60;99.90;;;18.60;100.00;97245.56;4987221;28;20145;-77
2023/05/15 09:27:19;;;;;;;5.82;3.05;;;19.40;99.90;;;18.26;100.00;97248.25;4981372;28;20172;-77
2023/05/15 09:29:47;;;;;;;6.00;2.90;;;19.10;99.90;;;17.77;100.00;97252.88;4981125;28;20054;-77
2023/05/15 09:32:14;;;;;;;4.38;3.10;;;18.90;99.90;;;17.91;100.00;97248.38;4981711;28;20056;-77
2023/05/15 09:34:43;;;;;;;5.38;2.97;;;18.60;99.90;;;17.63;100.00;97247.88;4982984;28;20140;-77
2023/05/15 09:37:31;;;;;;;5.97;3.13;;;18.30;99.90;;;17.48;100.00;97256.91;4978634;28;20145;-76
2023/05/15 09:40:12;;;;;;;7.60;3.53;;;18.20;99.90;;;17.59;100.00;97253.47;4995162;28;20057;-77
2023/05/15 09:42:39;;;;;;;5.90;3.22;;;18.20;99.90;;;17.47;100.00;97253.44;4996663;28;20531;-76
2023/05/15 09:45:17;;;;;;;4.60;3.00;;;18.20;99.90;;;17.53;100.00;97249.50;5000268;28;20680;-77
2023/05/15 09:47:45;;;;;;;4.75;3.13;;;18.20;99.90;;;18.65;100.00;97242.56;5003799;28;20132;-76
2023/05/15 09:50:21;;;;;;;4.45;2.95;;;18.70;99.90;;;20.64;100.00;97232.78;4998511;28;20073;-76
2023/05/15 09:52:50;;;;;;;4.38;2.90;;;20.10;99.90;;;21.49;100.00;97221.53;5009024;28;20050;-77
2023/05/15 09:55:21;;;;;;;5.03;2.97;;;21.20;99.90;;;21.30;100.00;97218.91;4994016;28;20137;-76
2023/05/15 09:58:10;;;;;;;6.13;2.85;;;22.00;99.90;;;21.83;100.00;97217.56;4966297;28;20050;-78
2023/05/15 10:00:40;;;;;;;3.25;1.90;;;22.60;99.90;;;22.03;100.00;97210.38;4991913;28;20053;-77
2023/05/15 10:03:20;;;;;;;3.08;2.10;;;23.20;99.90;;;22.85;100.00;97206.00;4995614;28;20050;-77
2023/05/15 10:05:48;;;;;;;5.88;2.65;;;23.10;99.60;;;22.96;100.00;97208.44;4984092;28;20046;-77
2023/05/15 10:08:26;;;;;;;4.55;3.25;;;23.50;98.60;;;23.76;100.00;97198.63;4994121;28;20050;-77
2023/05/15 10:10:55;;;;;;;4.30;2.00;;;23.80;97.60;;;23.62;100.00;97203.66;5007211;28;20050;-77
2023/05/15 10:13:22;;;;;;;3.85;2.25;;;24.10;97.90;;;23.41;100.00;97194.25;5000729;28;20105;-78
2023/05/15 10:15:51;;;;;;;3.85;2.50;;;23.90;97.70;;;23.10;100.00;97202.59;4990369;28;20055;-78
2023/05/15 10:18:23;;;;;;;3.42;2.42;;;24.10;96.90;;;23.09;100.00;97197.50;4983657;28;20054;-78
2023/05/15 10:20:52;;;;;;;4.88;2.40;;;23.70;96.80;;;22.73;100.00;97198.28;4999929;28;20119;-78
2023/05/15 10:23:21;;;;;;;4.05;2.45;;;24.00;95.00;;;21.57;100.00;97194.41;5017432;28;21348;-78
2023/05/15 10:26:05;;;;;;;3.25;2.22;;;23.40;95.20;;;21.52;100.00;97188.72;5016364;28;20486;-78
2023/05/15 10:28:34;;;;;;;3.88;2.35;;;22.20;95.70;;;20.63;100.00;97191.56;4993914;28;20061;-77
2023/05/15 10:31:02;;;;;;;4.18;2.47;;;;;;;19.82;100.00;97189.84;5008681;28;20145;-79
2023/05/15 10:33:32;;;;;;;4.30;2.22;;;21.00;96.90;;;19.23;100.00;97195.72;5014483;28;20064;-79